Time;durP1;ratioP1;P1;durP2;ratioP2;P2;SDS_P1;SDS_P2;PMS_P1;PMS_P2;Temp;Humidity;BMP_temperature;BMP_pressure;BME280_temperature;BME280_humidity;BME280_pressure;Samples;Min_cycle;Max_cycle;Signal;HPM_P1;HPM_P2
2023/08/28 04:16:59;;;;;;;0.45;0.35;;;25.10;65.30;;;;;;6309379;22;20199;31
2023/08/28 04:19:30;;;;;;;0.70;0.65;;;25.10;65.50;;;;;;6296589;22;20179;-86
2023/08/28 04:21:59;;;;;;;0.25;0.25;;;25.20;65.60;;;;;;6305303;22;20165;-87
2023/08/28 04:24:30;;;;;;;0.77;0.77;;;25.20;65.60;;;;;;6278195;22;20165;-86
2023/08/28 04:26:59;;;;;;;0.45;0.30;;;25.20;65.70;;;;;;6304614;22;20243;-87
2023/08/28 04:29:28;;;;;;;0.40;0.40;;;25.20;65.80;;;;;;6305520;22;20169;-88
2023/08/28 04:31:57;;;;;;;0.52;0.50;;;25.20;65.90;;;;;;6303463;22;20171;-88
2023/08/28 04:34:26;;;;;;;0.40;0.40;;;25.20;66.10;;;;;;6303475;22;20223;-86
2023/08/28 04:36:56;;;;;;;0.75;0.60;;;25.20;66.10;;;;;;6276861;22;20200;-87
2023/08/28 04:39:27;;;;;;;0.30;0.30;;;25.20;66.00;;;;;;6277406;22;20180;-88
2023/08/28 04:41:56;;;;;;;0.55;0.52;;;25.30;66.20;;;;;;6277587;22;20219;-86
2023/08/28 04:44:25;;;;;;;0.40;0.40;;;25.30;66.60;;;;;;6304303;22;20275;-87
2023/08/28 04:46:55;;;;;;;1.15;0.50;;;25.30;66.90;;;;;;6306161;22;20197;-88
2023/08/28 04:49:24;;;;;;;0.52;0.50;;;25.30;67.20;;;;;;6304656;22;20166;-88
2023/08/28 04:51:53;;;;;;;0.40;0.40;;;25.30;67.50;;;;;;6305044;22;20475;-87
2023/08/28 04:54:23;;;;;;;1.05;0.65;;;25.40;67.50;;;;;;6302664;22;20161;-86
2023/08/28 04:57:24;;;;;;;;;;;;;;;;;;;;;
2023/08/28 04:59:56;;;;;;;0.43;0.40;;;25.40;67.50;;;;;;6266229;22;20164;-88
2023/08/28 05:02:25;;;;;;;0.30;0.30;;;25.40;67.50;;;;;;6304041;22;20603;-87
2023/08/28 05:04:54;;;;;;;0.52;0.52;;;25.40;67.40;;;;;;6304891;22;20530;-88
2023/08/28 05:07:23;;;;;;;0.43;0.43;;;25.50;67.80;;;;;;6304086;22;20526;-87
2023/08/28 05:09:53;;;;;;;0.82;0.75;;;25.60;68.00;;;;;;6303000;22;20176;-89
2023/08/28 05:12:24;;;;;;;0.38;0.38;;;25.50;68.30;;;;;;6306600;22;20161;-87
2023/08/28 05:14:53;;;;;;;0.85;0.85;;;25.60;68.50;;;;;;6304609;22;20484;-88
2023/08/28 05:17:21;;;;;;;0.77;0.50;;;25.60;68.40;;;;;;6305324;22;20578;-89
2023/08/28 05:19:50;;;;;;;1.15;1.05;;;25.60;68.50;;;;;;6305025;22;20247;-87
2023/08/28 05:22:18;;;;;;;1.00;0.73;;;25.70;68.60;;;;;;6304435;22;20610;-90
2023/08/28 05:24:47;;;;;;;0.40;0.40;;;25.80;68.60;;;;;;6306521;22;20164;-87
2023/08/28 05:27:17;;;;;;;0.47;0.40;;;25.80;68.70;;;;;;6304445;22;20993;-88
2023/08/28 05:29:51;;;;;;;0.63;0.63;;;25.80;69.10;;;;;;6305353;22;20169;-90
2023/08/28 05:32:19;;;;;;;0.60;0.57;;;25.90;68.80;;;;;;6304294;22;20248;-90
2023/08/28 05:34:48;;;;;;;0.32;0.32;;;25.90;68.80;;;;;;6305709;22;20859;-88
2023/08/28 05:37:19;;;;;;;0.73;0.73;;;26.00;69.00;;;;;;6304204;22;20266;-88
2023/08/28 05:39:48;;;;;;;0.57;0.52;;;26.00;69.30;;;;;;6303427;22;20169;-86
2023/08/28 05:42:18;;;;;;;0.40;0.40;;;26.10;69.00;;;;;;6303199;22;20169;-85
2023/08/28 05:44:46;;;;;;;0.55;0.55;;;26.10;69.10;;;;;;6303753;22;20539;-86
2023/08/28 05:47:15;;;;;;;0.63;0.63;;;26.20;68.80;;;;;;6300731;22;20199;-85
2023/08/28 05:49:43;;;;;;;0.63;0.57;;;26.30;68.80;;;;;;6302947;22;20478;-86
2023/08/28 05:52:12;;;;;;;0.43;0.43;;;26.30;68.60;;;;;;6305014;22;20169;-85
2023/08/28 05:54:40;;;;;;;0.88;0.73;;;26.40;68.60;;;;;;6305737;22;20191;-85
2023/08/28 05:57:11;;;;;;;0.90;0.60;;;26.50;68.70;;;;;;6303152;22;20175;-85
2023/08/28 05:59:41;;;;;;;0.40;0.40;;;26.60;68.50;;;;;;6303834;22;20168;-83
2023/08/28 06:02:13;;;;;;;1.25;1.00;;;26.60;68.30;;;;;;6302133;22;20664;-86
2023/08/28 06:04:47;;;;;;;0.50;0.50;;;26.70;68.10;;;;;;6305621;22;20244;-85
2023/08/28 06:07:19;;;;;;;0.40;0.40;;;26.70;67.90;;;;;;6304211;22;20260;-85
2023/08/28 06:09:47;;;;;;;0.45;0.45;;;26.80;67.80;;;;;;6303276;22;20245;-84
2023/08/28 06:12:15;;;;;;;0.47;0.40;;;26.90;67.70;;;;;;6304014;22;20172;-85
2023/08/28 06:14:45;;;;;;;0.45;0.45;;;27.00;67.60;;;;;;6304431;22;20165;-86
2023/08/28 06:17:14;;;;;;;0.40;0.40;;;27.10;67.40;;;;;;6301976;22;20475;-84
2023/08/28 06:19:42;;;;;;;0.40;0.40;;;27.20;67.20;;;;;;6305121;22;20170;-85
2023/08/28 06:22:11;;;;;;;1.02;0.63;;;27.30;66.90;;;;;;6305089;22;20177;-85
2023/08/28 06:24:39;;;;;;;0.60;0.50;;;27.30;66.50;;;;;;6305559;22;20161;-84
2023/08/28 06:27:07;;;;;;;0.85;0.68;;;27.40;66.30;;;;;;6304765;22;20700;-84
2023/08/28 06:29:36;;;;;;;0.80;0.77;;;27.50;66.30;;;;;;6304184;22;20661;-84
2023/08/28 06:32:06;;;;;;;0.32;0.32;;;27.60;65.90;;;;;;6302575;22;20628;-85
2023/08/28 06:34:34;;;;;;;0.20;0.20;;;27.70;65.60;;;;;;6305108;22;20172;-84
2023/08/28 06:37:03;;;;;;;0.65;0.45;;;27.80;65.40;;;;;;6305300;22;20176;-85
2023/08/28 06:39:31;;;;;;;0.60;0.60;;;27.80;65.00;;;;;;6305190;22;20173;-85
2023/08/28 06:41:59;;;;;;;0.75;0.68;;;27.90;64.60;;;;;;6304988;22;20165;-85
2023/08/28 06:44:28;;;;;;;0.40;0.40;;;28.00;64.10;;;;;;6304385;22;20165;-85
2023/08/28 06:46:56;;;;;;;0.30;0.30;;;28.10;63.70;;;;;;6303747;22;20271;-86
2023/08/28 06:49:26;;;;;;;0.22;0.22;;;28.20;63.40;;;;;;6303835;22;20172;-85
2023/08/28 06:51:55;;;;;;;0.55;0.45;;;28.20;62.70;;;;;;6304995;22;20169;-85
2023/08/28 06:54:23;;;;;;;0.63;0.63;;;28.30;62.60;;;;;;6305233;22;20571;-85
2023/08/28 06:56:52;;;;;;;0.30;0.30;;;28.40;62.30;;;;;;6304792;22;20512;-86
2023/08/28 06:59:21;;;;;;;0.90;0.40;;;28.50;61.40;;;;;;6304915;22;20166;-85
2023/08/28 07:01:49;;;;;;;2.00;0.82;;;28.60;61.20;;;;;;6304534;22;20196;-85
2023/08/28 07:04:18;;;;;;;0.38;0.38;;;28.70;61.20;;;;;;6303480;22;20259;-84
2023/08/28 07:06:47;;;;;;;0.45;0.45;;;28.70;61.10;;;;;;6304516;22;20630;-83
2023/08/28 07:09:16;;;;;;;0.40;0.32;;;28.80;60.70;;;;;;6306673;22;20653;-84
2023/08/28 07:11:45;;;;;;;0.20;0.20;;;28.90;60.60;;;;;;6301897;22;20173;-86
2023/08/28 07:14:13;;;;;;;1.15;0.40;;;29.00;60.60;;;;;;6306400;22;20176;-86
2023/08/28 07:16:41;;;;;;;0.40;0.40;;;29.00;60.30;;;;;;6305306;22;20179;-85
2023/08/28 07:19:10;;;;;;;0.30;0.30;;;29.10;60.10;;;;;;6303751;22;20184;-85
2023/08/28 07:21:38;;;;;;;0.30;0.30;;;29.20;59.90;;;;;;6306378;22;20160;-85
2023/08/28 07:24:09;;;;;;;0.50;0.50;;;29.20;59.60;;;;;;6306326;22;20165;-86
2023/08/28 07:26:37;;;;;;;0.32;0.28;;;29.30;59.30;;;;;;6304660;22;20520;-86
2023/08/28 07:29:06;;;;;;;0.55;0.40;;;29.40;59.10;;;;;;6304758;22;20559;-84
2023/08/28 07:31:35;;;;;;;0.40;0.40;;;29.40;57.90;;;;;;6304471;22;20686;-86
2023/08/28 07:34:04;;;;;;;0.65;0.65;;;29.50;57.30;;;;;;6303053;22;20173;-86
2023/08/28 07:36:33;;;;;;;0.43;0.43;;;29.60;56.30;;;;;;6303824;22;20169;-87
2023/08/28 07:39:01;;;;;;;0.68;0.68;;;29.70;55.80;;;;;;6304208;22;20687;-84
2023/08/28 07:41:31;;;;;;;0.38;0.38;;;29.70;55.80;;;;;;6304574;22;20248;-84
2023/08/28 07:44:00;;;;;;;0.57;0.57;;;29.80;55.80;;;;;;6302313;22;20177;-84
2023/08/28 07:46:30;;;;;;;0.63;0.35;;;29.80;55.40;;;;;;6304355;22;20844;-85
2023/08/28 07:48:59;;;;;;;0.43;0.43;;;29.90;54.80;;;;;;6301692;22;20198;-89
2023/08/28 07:51:28;;;;;;;0.30;0.30;;;30.00;54.90;;;;;;6306452;22;20171;-87
2023/08/28 07:53:56;;;;;;;0.30;0.30;;;30.00;53.70;;;;;;6307001;22;20579;-89
2023/08/28 07:56:25;;;;;;;0.32;0.32;;;30.10;52.80;;;;;;6306041;22;20165;-85
2023/08/28 07:58:54;;;;;;;0.57;0.40;;;30.20;51.90;;;;;;6306275;22;20175;-85
2023/08/28 08:01:26;;;;;;;1.23;0.57;;;30.30;51.50;;;;;;6303941;22;20177;-85
2023/08/28 08:03:54;;;;;;;0.47;0.40;;;30.30;51.80;;;;;;6303193;22;20161;-85
2023/08/28 08:06:25;;;;;;;0.35;0.35;;;30.40;52.20;;;;;;6303229;22;20920;-87
2023/08/28 08:08:54;;;;;;;0.30;0.20;;;30.40;52.20;;;;;;6305988;22;20633;-84
2023/08/28 08:11:22;;;;;;;0.40;0.40;;;30.50;52.50;;;;;;6306401;22;20173;-84
2023/08/28 08:13:51;;;;;;;0.57;0.40;;;30.50;52.20;;;;;;6302461;22;20633;-84
2023/08/28 08:16:22;;;;;;;0.70;0.70;;;30.60;51.70;;;;;;6306316;22;20161;-87
2023/08/28 08:18:51;;;;;;;0.98;0.88;;;30.70;51.60;;;;;;6303307;22;20228;-85
2023/08/28 08:21:20;;;;;;;0.50;0.45;;;30.80;51.90;;;;;;6300655;22;20511;-84
2023/08/28 08:23:49;;;;;;;1.17;1.13;;;30.80;51.80;;;;;;6304162;22;20204;-83
2023/08/28 08:26:17;;;;;;;0.50;0.50;;;30.80;48.90;;;;;;6304681;22;20533;-85
2023/08/28 08:28:46;;;;;;;2.08;0.40;;;30.90;49.70;;;;;;6305016;22;20220;-84
2023/08/28 08:31:14;;;;;;;0.47;0.47;;;30.90;50.20;;;;;;6300188;22;20199;-84
2023/08/28 08:33:44;;;;;;;2.05;0.68;;;31.00;50.00;;;;;;6302725;22;20173;-84
2023/08/28 08:36:18;;;;;;;1.17;0.22;;;31.10;49.90;;;;;;6303923;22;20165;-86
2023/08/28 08:38:47;;;;;;;0.75;0.70;;;31.20;50.20;;;;;;6305306;22;20166;-85
2023/08/28 08:41:15;;;;;;;0.60;0.60;;;31.20;49.30;;;;;;6304809;22;20176;-85
2023/08/28 08:43:44;;;;;;;0.40;0.40;;;31.20;49.10;;;;;;6306092;22;20166;-84
2023/08/28 08:46:21;;;;;;;1.30;0.82;;;31.30;48.70;;;;;;6313111;22;20169;-90
2023/08/28 08:48:53;;;;;;;0.40;0.40;;;31.40;48.60;;;;;;6310959;22;20275;-85
2023/08/28 08:51:25;;;;;;;1.13;0.98;;;31.40;48.70;;;;;;6305254;22;20165;-87
2023/08/28 08:53:59;;;;;;;0.30;0.30;;;31.50;48.20;;;;;;6305248;22;20169;-86
2023/08/28 08:56:32;;;;;;;0.65;0.65;;;31.50;48.30;;;;;;6301874;22;20493;-86
2023/08/28 08:59:01;;;;;;;1.00;0.73;;;31.60;48.50;;;;;;6304441;22;20171;-87
2023/08/28 09:01:33;;;;;;;3.40;1.05;;;31.60;46.70;;;;;;6304302;22;20252;-87
2023/08/28 09:04:03;;;;;;;0.85;0.73;;;31.70;46.40;;;;;;6302842;22;20359;-86
2023/08/28 09:06:35;;;;;;;0.60;0.60;;;31.80;46.60;;;;;;6305455;22;20591;-87
2023/08/28 09:09:05;;;;;;;4.88;0.88;;;31.80;46.90;;;;;;6303425;22;20185;-84
2023/08/28 09:11:36;;;;;;;0.73;0.73;;;31.80;46.80;;;;;;6305755;22;20184;-87
2023/08/28 09:14:05;;;;;;;0.40;0.40;;;31.90;46.50;;;;;;6304273;22;20169;-87
2023/08/28 09:16:35;;;;;;;0.68;0.45;;;32.00;46.00;;;;;;6305767;22;20204;-86
2023/08/28 09:19:05;;;;;;;1.45;0.40;;;32.00;46.60;;;;;;6303366;22;20314;-88
2023/08/28 09:21:39;;;;;;;0.40;0.40;;;32.00;46.00;;;;;;6302931;22;20164;-88
2023/08/28 09:24:09;;;;;;;0.70;0.70;;;32.10;46.30;;;;;;6303389;22;20161;-87
2023/08/28 09:26:39;;;;;;;0.88;0.50;;;32.20;45.70;;;;;;6303244;22;20200;-88
2023/08/28 09:29:09;;;;;;;0.73;0.45;;;32.20;44.30;;;;;;6305123;22;20193;-87
2023/08/28 09:31:39;;;;;;;1.30;0.60;;;32.20;44.90;;;;;;6305528;22;20161;-86
2023/08/28 09:34:10;;;;;;;0.52;0.52;;;32.30;45.00;;;;;;6302647;22;20197;-87
2023/08/28 09:36:41;;;;;;;3.38;1.00;;;32.30;45.10;;;;;;6303772;22;20177;-88
2023/08/28 09:39:13;;;;;;;3.15;1.90;;;32.40;45.40;;;;;;6303621;22;20219;-86
2023/08/28 09:41:43;;;;;;;2.65;1.42;;;32.50;45.30;;;;;;6305709;22;20176;-88
2023/08/28 09:44:14;;;;;;;1.88;1.38;;;32.60;44.70;;;;;;6304069;22;20160;-84
2023/08/28 09:46:43;;;;;;;2.78;1.48;;;32.60;44.50;;;;;;6303449;22;20164;-87
2023/08/28 09:49:14;;;;;;;2.78;1.83;;;32.70;44.90;;;;;;6302669;22;20616;-86
2023/08/28 09:51:46;;;;;;;1.30;1.20;;;32.80;45.30;;;;;;6304655;22;20161;-88
2023/08/28 09:54:16;;;;;;;0.98;0.90;;;32.80;45.30;;;;;;6302494;22;20161;-88
2023/08/28 09:56:45;;;;;;;1.00;0.90;;;32.90;45.60;;;;;;6304296;22;20172;-88
2023/08/28 09:59:15;;;;;;;1.45;0.88;;;32.90;45.70;;;;;;6302756;22;20171;-85
2023/08/28 10:01:43;;;;;;;1.13;1.02;;;33.00;45.40;;;;;;6303037;22;20599;-87
2023/08/28 10:04:13;;;;;;;1.75;1.08;;;33.10;45.10;;;;;;6304942;22;20618;-86
2023/08/28 10:06:45;;;;;;;0.40;0.40;;;33.10;43.70;;;;;;6302941;22;20192;-88
2023/08/28 10:09:18;;;;;;;1.25;0.80;;;33.20;44.20;;;;;;6300782;22;20203;-87
2023/08/28 10:11:50;;;;;;;2.20;1.10;;;33.30;44.60;;;;;;6304656;22;20418;-86
2023/08/28 10:14:20;;;;;;;0.73;0.70;;;33.30;44.70;;;;;;6304171;22;20532;-87
2023/08/28 10:16:53;;;;;;;1.40;0.80;;;33.40;44.90;;;;;;6303306;22;20223;-88
2023/08/28 10:19:26;;;;;;;1.77;1.20;;;33.40;44.80;;;;;;6302609;22;20193;-87
2023/08/28 10:24:50;;;;;;;0.82;0.77;;;33.60;44.50;;;;;;6328545;22;20494;-85
2023/08/28 10:27:19;;;;;;;1.33;0.88;;;33.60;44.10;;;;;;6332969;22;20157;-85
2023/08/28 10:29:47;;;;;;;3.13;1.30;;;33.70;44.30;;;;;;6334872;22;20192;-86
2023/08/28 10:32:19;;;;;;;0.45;0.45;;;33.80;44.30;;;;;;6333749;22;20154;-85
2023/08/28 10:34:52;;;;;;;0.55;0.55;;;33.80;43.90;;;;;;6334100;22;20153;-85
2023/08/28 10:37:21;;;;;;;1.02;0.70;;;33.80;43.90;;;;;;6331499;22;20193;-83
2023/08/28 10:39:58;;;;;;;1.02;0.90;;;33.90;43.10;;;;;;6305981;22;20666;-84
2023/08/28 10:42:28;;;;;;;0.40;0.40;;;34.00;43.60;;;;;;6333643;22;20163;-86
2023/08/28 10:44:58;;;;;;;0.73;0.50;;;34.00;43.60;;;;;;6333417;22;20692;-85
2023/08/28 10:47:30;;;;;;;0.73;0.70;;;34.10;43.70;;;;;;6329078;22;20783;-84
2023/08/28 10:50:00;;;;;;;2.03;1.25;;;34.10;43.70;;;;;;6332395;22;20568;-86
2023/08/28 10:52:29;;;;;;;0.50;0.50;;;34.10;43.60;;;;;;6331085;22;20266;-83
2023/08/28 10:54:58;;;;;;;1.33;0.60;;;34.20;43.50;;;;;;6333979;22;20175;-83
2023/08/28 10:57:31;;;;;;;4.90;1.02;;;34.20;43.40;;;;;;6334627;22;20152;-84
2023/08/28 11:00:02;;;;;;;0.60;0.60;;;34.30;43.30;;;;;;6307250;22;20711;-85
2023/08/28 11:03:05;;;;;;;0.40;0.40;;;34.30;43.00;;;;;;6332840;22;20156;-85
2023/08/28 11:05:38;;;;;;;0.20;0.20;;;34.40;43.40;;;;;;6334169;22;20243;-85
2023/08/28 11:08:08;;;;;;;1.45;0.57;;;34.40;43.40;;;;;;6332598;22;20156;-86
2023/08/28 11:10:38;;;;;;;1.65;0.60;;;34.50;43.50;;;;;;6334816;22;20191;-82
2023/08/28 11:13:08;;;;;;;0.50;0.40;;;34.50;43.20;;;;;;6335364;22;20164;-84
2023/08/28 11:15:41;;;;;;;0.50;0.50;;;34.60;43.30;;;;;;6335340;22;20163;-83
2023/08/28 11:18:28;;;;;;;0.70;0.70;;;34.60;43.60;;;;;;6334287;22;20153;-84
2023/08/28 11:21:00;;;;;;;0.82;0.47;;;34.70;43.00;;;;;;6335138;22;20243;-84
2023/08/28 11:23:35;;;;;;;0.90;0.90;;;34.70;43.30;;;;;;6333246;22;20564;-84
2023/08/28 11:26:08;;;;;;;1.02;0.90;;;34.70;41.80;;;;;;6334426;22;20213;-87
2023/08/28 11:28:44;;;;;;;3.55;0.70;;;34.80;42.00;;;;;;6333360;22;20161;-84
2023/08/28 11:31:14;;;;;;;0.30;0.30;;;34.80;42.20;;;;;;6332320;22;20215;-85
2023/08/28 11:33:45;;;;;;;3.90;0.68;;;34.90;42.40;;;;;;6334471;22;20206;-86
2023/08/28 11:36:18;;;;;;;0.28;0.28;;;34.90;42.50;;;;;;6331731;22;20240;-84
2023/08/28 11:38:47;;;;;;;0.40;0.40;;;35.00;42.60;;;;;;6306882;22;20175;-84
2023/08/28 11:41:16;;;;;;;0.43;0.43;;;35.00;42.70;;;;;;6333258;22;20545;-83
2023/08/28 11:43:45;;;;;;;0.77;0.63;;;35.10;42.90;;;;;;6333205;22;20196;-84
2023/08/28 11:46:14;;;;;;;0.32;0.32;;;35.10;42.80;;;;;;6335210;22;20184;-85
2023/08/28 11:48:48;;;;;;;0.73;0.60;;;35.20;42.70;;;;;;6308004;22;20169;-85
2023/08/28 11:51:26;;;;;;;0.57;0.40;;;35.20;42.30;;;;;;6309169;22;20191;-84
2023/08/28 11:53:54;;;;;;;0.75;0.55;;;35.20;42.70;;;;;;6337202;22;20609;-85
2023/08/28 11:56:23;;;;;;;0.65;0.55;;;35.20;42.10;;;;;;6336072;22;20226;-84
2023/08/28 11:58:54;;;;;;;0.50;0.50;;;35.30;42.00;;;;;;6337908;22;20239;-86
2023/08/28 12:01:27;;;;;;;0.45;0.38;;;35.30;41.90;;;;;;6333941;22;20479;-84
2023/08/28 12:04:00;;;;;;;0.70;0.60;;;35.40;41.90;;;;;;6336237;22;20190;-84
2023/08/28 12:06:39;;;;;;;0.75;0.70;;;35.40;42.10;;;;;;6309397;22;20160;-83
2023/08/28 12:09:10;;;;;;;0.40;0.40;;;35.40;42.10;;;;;;6337482;22;20153;-84
2023/08/28 12:11:39;;;;;;;0.63;0.63;;;35.50;41.60;;;;;;6336318;22;20230;-86
2023/08/28 12:14:15;;;;;;;0.98;0.52;;;35.60;41.80;;;;;;6335742;22;20604;-85
2023/08/28 12:16:43;;;;;;;0.40;0.40;;;35.60;42.00;;;;;;6336817;22;20235;-85
2023/08/28 12:19:20;;;;;;;1.20;0.60;;;35.60;41.80;;;;;;6336753;22;20176;-85
2023/08/28 12:21:50;;;;;;;0.65;0.47;;;35.70;41.70;;;;;;6335352;22;20497;-84
2023/08/28 12:24:19;;;;;;;0.40;0.30;;;35.70;41.90;;;;;;6335880;22;20238;-85
2023/08/28 12:26:47;;;;;;;1.05;0.60;;;35.70;41.60;;;;;;6336419;22;20173;-83
2023/08/28 12:29:15;;;;;;;0.52;0.52;;;35.80;41.50;;;;;;6335552;22;20161;-84
2023/08/28 12:31:48;;;;;;;0.50;0.50;;;35.80;41.30;;;;;;6335848;22;20648;-83
2023/08/28 12:34:18;;;;;;;0.30;0.30;;;35.80;41.30;;;;;;6336821;22;20157;-83
2023/08/28 12:36:47;;;;;;;1.60;0.73;;;35.80;40.20;;;;;;6337037;22;20165;-84
2023/08/28 12:39:19;;;;;;;0.30;0.30;;;35.90;40.90;;;;;;6335669;22;20175;-83
2023/08/28 12:41:52;;;;;;;1.00;0.70;;;35.90;41.70;;;;;;6337169;22;20228;-83
2023/08/28 12:44:21;;;;;;;4.18;0.85;;;35.90;41.20;;;;;;6335503;22;20210;-83
2023/08/28 12:46:50;;;;;;;1.20;0.63;;;35.90;41.20;;;;;;6335715;22;20168;-83
2023/08/28 12:49:19;;;;;;;1.15;0.88;;;36.00;40.90;;;;;;6336547;22;20398;-83
2023/08/28 12:51:49;;;;;;;0.40;0.40;;;36.00;40.40;;;;;;6336757;22;20251;-84
2023/08/28 12:54:20;;;;;;;0.30;0.30;;;36.00;40.60;;;;;;6335421;22;20331;-83
2023/08/28 12:56:49;;;;;;;0.65;0.40;;;36.00;40.80;;;;;;6334154;22;20244;-84
2023/08/28 12:59:17;;;;;;;1.33;0.95;;;36.00;40.50;;;;;;6336258;22;20554;-84
2023/08/28 13:01:46;;;;;;;0.55;0.55;;;36.10;40.30;;;;;;6335726;22;20171;-84
2023/08/28 13:04:15;;;;;;;1.10;0.60;;;36.10;39.40;;;;;;6305869;22;20172;-87
2023/08/28 13:06:44;;;;;;;0.50;0.50;;;36.10;39.70;;;;;;6338767;22;20218;-85
2023/08/28 13:12:01;;;;;;;0.38;0.38;;;36.20;39.20;;;;;;6324725;22;20206;-88
2023/08/28 13:14:33;;;;;;;2.70;0.85;;;36.20;39.10;;;;;;6338503;22;20210;-87
2023/08/28 13:17:02;;;;;;;0.57;0.57;;;36.20;38.50;;;;;;6311725;22;20161;-89
2023/08/28 13:19:31;;;;;;;0.30;0.30;;;36.20;39.10;;;;;;6333897;22;20188;-88
2023/08/28 13:36:41;;;;;;;1.55;0.75;;;36.50;39.70;;;;;;6321887;22;20213;-87
2023/08/28 13:39:09;;;;;;;0.55;0.40;;;36.60;39.50;;;;;;6334519;22;20157;-87
2023/08/28 13:41:43;;;;;;;0.50;0.50;;;36.60;39.60;;;;;;6335794;22;20616;-88
2023/08/28 13:44:11;;;;;;;1.02;0.88;;;36.60;39.40;;;;;;6335904;22;20239;-87
2023/08/28 13:46:42;;;;;;;2.38;1.73;;;36.70;38.90;;;;;;6336337;22;20207;-87
2023/08/28 13:49:10;;;;;;;0.63;0.50;;;36.80;38.90;;;;;;6332981;22;20498;-85
2023/08/28 13:51:42;;;;;;;2.22;0.93;;;36.70;39.30;;;;;;6335854;22;20188;-89
2023/08/28 13:54:10;;;;;;;2.63;0.88;;;36.80;38.90;;;;;;6337533;22;20160;-88
2023/08/28 13:56:39;;;;;;;0.68;0.68;;;36.90;38.30;;;;;;6337603;22;20605;-90
2023/08/28 13:59:08;;;;;;;0.50;0.50;;;36.90;38.40;;;;;;6335931;22;20251;-90
2023/08/28 14:01:37;;;;;;;0.70;0.63;;;36.90;38.70;;;;;;6337489;22;20176;-88
2023/08/28 14:04:06;;;;;;;0.98;0.70;;;36.90;39.00;;;;;;6336991;22;20165;-88
2023/08/28 14:06:47;;;;;;;0.68;0.60;;;37.90;39.00;;;;;;6335336;22;20167;-87
2023/08/28 14:09:16;;;;;;;0.70;0.70;;;39.00;38.20;;;;;;6333247;22;20159;-87
2023/08/28 14:11:44;;;;;;;2.38;1.65;;;39.00;37.90;;;;;;6336912;22;20270;-86
2023/08/28 14:14:14;;;;;;;0.77;0.73;;;39.10;37.10;;;;;;6335834;22;20164;-84
2023/08/28 14:16:42;;;;;;;1.08;0.90;;;39.10;37.10;;;;;;6334989;22;20176;-87
2023/08/28 14:19:11;;;;;;;1.02;0.90;;;39.40;36.90;;;;;;6336567;22;20164;-89
2023/08/28 14:21:44;;;;;;;0.63;0.60;;;39.10;36.70;;;;;;6336311;22;20168;-93
2023/08/28 14:24:13;;;;;;;0.88;0.70;;;38.90;37.30;;;;;;6338107;22;20170;-88
2023/08/28 14:26:42;;;;;;;0.65;0.65;;;38.90;37.50;;;;;;6334957;22;20171;-89
2023/08/28 14:29:11;;;;;;;0.65;0.40;;;39.00;37.30;;;;;;6336140;22;20214;-85
2023/08/28 14:31:39;;;;;;;0.60;0.50;;;38.70;36.10;;;;;;6335861;22;20188;-87
2023/08/28 14:34:08;;;;;;;0.93;0.60;;;38.50;36.20;;;;;;6335733;22;20586;-88
2023/08/28 14:36:36;;;;;;;0.57;0.57;;;38.30;36.80;;;;;;6335265;22;20593;-88
2023/08/28 14:39:06;;;;;;;2.08;0.90;;;38.30;37.10;;;;;;6334238;22;20164;-91
2023/08/28 14:41:35;;;;;;;2.97;0.50;;;39.10;36.80;;;;;;6333835;22;20459;-88
2023/08/28 14:44:06;;;;;;;1.13;0.60;;;39.40;36.70;;;;;;6335249;22;20210;-87
2023/08/28 14:46:35;;;;;;;1.08;0.82;;;39.50;36.50;;;;;;6335497;22;20539;-88
2023/08/28 14:49:05;;;;;;;0.52;0.50;;;39.70;36.60;;;;;;6334652;22;20182;-89
2023/08/28 14:51:34;;;;;;;3.15;1.08;;;39.40;37.10;;;;;;6334299;22;20188;-87
2023/08/28 14:54:04;;;;;;;1.35;0.75;;;39.50;37.00;;;;;;6333237;22;20247;-86
2023/08/28 14:56:34;;;;;;;2.10;1.25;;;39.90;36.40;;;;;;6335208;22;20499;-87
2023/08/28 14:59:02;;;;;;;0.40;0.40;;;40.50;35.60;;;;;;6335492;22;20170;-86
2023/08/28 15:01:31;;;;;;;0.77;0.77;;;40.20;35.50;;;;;;6333779;22;20160;-88
2023/08/28 15:03:59;;;;;;;0.90;0.80;;;39.90;36.10;;;;;;6334164;22;20171;-87
2023/08/28 15:06:28;;;;;;;0.63;0.63;;;39.80;35.70;;;;;;6333400;22;20255;-87
2023/08/28 15:08:56;;;;;;;4.75;0.82;;;39.50;35.60;;;;;;6334179;22;20221;-86
2023/08/28 15:11:25;;;;;;;0.93;0.60;;;39.30;36.00;;;;;;6334890;22;20184;-88
2023/08/28 15:13:55;;;;;;;2.17;1.30;;;39.10;36.20;;;;;;6334029;22;20209;-86
2023/08/28 15:16:24;;;;;;;0.77;0.60;;;38.90;36.50;;;;;;6336016;22;20164;-92
2023/08/28 15:18:55;;;;;;;0.57;0.47;;;38.70;36.40;;;;;;6335870;22;20160;-91
2023/08/28 15:21:25;;;;;;;1.23;0.60;;;38.50;36.50;;;;;;6337833;22;20195;-92
2023/08/28 15:23:56;;;;;;;0.75;0.75;;;38.30;36.70;;;;;;6338511;22;20168;-92
2023/08/28 15:26:25;;;;;;;1.42;0.93;;;38.10;36.80;;;;;;6339976;22;20156;-91
2023/08/28 15:28:55;;;;;;;1.02;0.88;;;37.90;36.70;;;;;;6339574;22;20676;-91
2023/08/28 16:49:02;;;;;;;0.22;0.22;;;34.90;40.00;;;;;;6337672;22;20156;-86
2023/08/28 16:51:34;;;;;;;0.65;0.65;;;34.80;40.10;;;;;;6310002;22;20199;-87
2023/08/28 16:54:03;;;;;;;0.55;0.30;;;34.70;40.20;;;;;;6338126;22;20239;-87
2023/08/28 16:56:32;;;;;;;0.63;0.30;;;34.60;40.30;;;;;;6337449;22;20168;-86
2023/08/28 16:59:00;;;;;;;0.40;0.35;;;34.60;40.40;;;;;;6338063;22;20251;-88
2023/08/28 17:01:29;;;;;;;0.50;0.50;;;34.50;40.50;;;;;;6337935;22;20169;-87
2023/08/28 17:03:58;;;;;;;0.25;0.25;;;34.40;40.60;;;;;;6337182;22;20220;-88
2023/08/28 17:06:29;;;;;;;0.30;0.30;;;34.30;40.70;;;;;;6338484;22;20180;-87
2023/08/28 17:08:59;;;;;;;0.30;0.30;;;34.20;40.80;;;;;;6339440;22;20191;-87
2023/08/28 17:11:28;;;;;;;0.30;0.30;;;34.20;41.00;;;;;;6340288;22;20163;-88
2023/08/28 17:13:57;;;;;;;0.55;0.40;;;34.10;41.00;;;;;;6338899;22;20167;-87
2023/08/28 17:16:26;;;;;;;0.25;0.25;;;34.00;41.20;;;;;;6337601;22;20198;-88
2023/08/28 17:18:54;;;;;;;0.43;0.30;;;33.90;41.20;;;;;;6337989;22;20214;-86
2023/08/28 17:21:23;;;;;;;0.30;0.30;;;33.90;41.30;;;;;;6335566;22;20616;-87
2023/08/28 17:23:51;;;;;;;0.52;0.52;;;33.80;41.40;;;;;;6335567;22;20192;-85
2023/08/28 17:27:33;;;;;;;0.40;0.40;;;33.70;41.40;;;;;;6337569;22;20203;-88
2023/08/28 17:31:12;;;;;;;0.20;0.20;;;33.60;41.60;;;;;;6337748;22;20166;-90
2023/08/28 17:34:11;;;;;;;0.25;0.25;;;33.50;41.60;;;;;;6245465;23;20245;-87
2023/08/28 17:37:15;;;;;;;;;;;;;;;;;;;;;
2023/08/28 17:47:18;;;;;;;0.45;0.45;;;33.20;42.40;;;;;;6320407;22;20207;-89
2023/08/28 17:56:05;;;;;;;0.38;0.38;;;32.80;42.80;;;;;;6339736;22;20422;-88
2023/08/28 17:58:56;;;;;;;;;;;;;;;;;;;;;
2023/08/28 18:01:59;;;;;;;0.20;0.20;;;32.70;43.20;;;;;;6338207;22;20223;-89
2023/08/28 18:08:18;;;;;;;0.77;0.60;;;32.50;43.60;;;;;;6353986;22;20215;-94
2023/08/28 18:10:57;;;;;;;1.17;0.55;;;32.40;43.90;;;;;;6368777;22;20246;-91
2023/08/28 18:14:33;;;;;;;0.95;0.80;;;32.40;44.00;;;;;;6367053;22;20206;-90
2023/08/28 18:17:08;;;;;;;0.40;0.40;;;32.20;44.10;;;;;;6368812;22;20167;-92
2023/08/28 18:20:20;;;;;;;0.50;0.50;;;32.20;44.30;;;;;;6371327;22;20159;-89
2023/08/28 18:22:50;;;;;;;0.38;0.38;;;32.10;44.40;;;;;;6329283;22;20225;-91
2023/08/28 18:25:38;;;;;;;0.30;0.30;;;32.00;44.50;;;;;;6371416;22;20160;-91
2023/08/28 18:28:07;;;;;;;1.90;0.60;;;32.00;44.70;;;;;;6370514;22;20242;-92
2023/08/28 18:30:42;;;;;;;0.55;0.43;;;31.90;44.70;;;;;;6372065;22;20156;-93
2023/08/28 18:33:16;;;;;;;2.47;0.85;;;31.90;44.90;;;;;;6371549;22;20199;-92
2023/08/28 18:35:51;;;;;;;1.20;0.82;;;31.80;45.10;;;;;;6370629;22;20173;-91
2023/08/28 18:38:21;;;;;;;1.15;0.45;;;31.70;45.30;;;;;;6371958;22;20191;-91
2023/08/28 18:40:50;;;;;;;0.75;0.47;;;31.70;45.50;;;;;;6367162;22;20246;-92
2023/08/28 18:43:28;;;;;;;0.22;0.22;;;31.60;45.50;;;;;;6371270;22;20159;-93
2023/08/28 18:46:00;;;;;;;1.17;0.45;;;31.60;46.30;;;;;;6371556;22;20167;-92
2023/08/28 18:52:43;;;;;;;;;;;;;;;;;;;;;
2023/08/28 18:55:21;;;;;;;0.50;0.50;;;31.40;45.80;;;;;;6370235;22;20164;-91
2023/08/28 18:58:00;;;;;;;0.35;0.35;;;31.40;45.80;;;;;;6370774;22;20201;-90
2023/08/28 19:03:22;;;;;;;0.35;0.35;;;31.40;45.90;;;;;;6369322;22;20593;-90
2023/08/28 19:06:02;;;;;;;0.60;0.52;;;31.40;46.00;;;;;;6370992;22;20619;-95
2023/08/28 19:08:33;;;;;;;1.23;1.08;;;31.30;45.90;;;;;;6369991;22;20163;-92
2023/08/28 19:11:10;;;;;;;0.22;0.22;;;31.30;46.10;;;;;;6370385;22;20160;-90
2023/08/28 19:13:40;;;;;;;1.38;1.17;;;31.30;46.10;;;;;;6371045;22;20228;-91
2023/08/28 19:16:13;;;;;;;0.40;0.40;;;31.30;46.20;;;;;;6368532;22;20164;-91
2023/08/28 19:18:47;;;;;;;1.08;0.75;;;31.30;46.40;;;;;;6371326;22;20585;-88
2023/08/28 19:21:18;;;;;;;0.68;0.57;;;31.20;46.30;;;;;;6370952;22;20217;-92
2023/08/28 19:23:51;;;;;;;1.10;0.98;;;31.20;46.40;;;;;;6370815;22;20187;-93
2023/08/28 19:26:24;;;;;;;1.08;0.90;;;31.20;46.50;;;;;;6369217;22;20526;-94
2023/08/28 19:28:56;;;;;;;0.70;0.70;;;31.20;46.70;;;;;;6369931;22;20163;-92
2023/08/28 19:31:39;;;;;;;0.50;0.50;;;31.20;46.80;;;;;;6364795;22;20168;-92